sensor_id;sensor_type;location;lat;lon;timestamp;temperature;humidity
26907;DHT22;14472;56.880;16.658;2023-06-26T00:01:20;21.90;26.90
26907;DHT22;14472;56.880;16.658;2023-06-26T00:03:46;21.90;25.40
26907;DHT22;14472;56.880;16.658;2023-06-26T00:06:13;21.90;27.50
26907;DHT22;14472;56.880;16.658;2023-06-26T00:08:38;21.90;27.20
26907;DHT22;14472;56.880;16.658;2023-06-26T00:11:04;21.90;27.40
26907;DHT22;14472;56.880;16.658;2023-06-26T00:13:30;21.90;25.80
26907;DHT22;14472;56.880;16.658;2023-06-26T00:15:56;21.90;25.10
26907;DHT22;14472;56.880;16.658;2023-06-26T00:18:21;21.90;24.20
26907;DHT22;14472;56.880;16.658;2023-06-26T00:20:49;21.90;22.00
26907;DHT22;14472;56.880;16.658;2023-06-26T00:23:16;21.90;17.90
26907;DHT22;14472;56.880;16.658;2023-06-26T00:25:43;21.90;13.40
26907;DHT22;14472;56.880;16.658;2023-06-26T00:28:09;21.80;13.30
26907;DHT22;14472;56.880;16.658;2023-06-26T00:30:35;21.80;12.40
26907;DHT22;14472;56.880;16.658;2023-06-26T00:33:01;21.80;9.80
26907;DHT22;14472;56.880;16.658;2023-06-26T00:35:27;21.80;8.80
26907;DHT22;14472;56.880;16.658;2023-06-26T00:37:53;21.70;6.10
26907;DHT22;14472;56.880;16.658;2023-06-26T00:40:18;21.70;4.70
26907;DHT22;14472;56.880;16.658;2023-06-26T00:42:44;21.60;4.00
26907;DHT22;14472;56.880;16.658;2023-06-26T00:45:10;21.60;4.10
26907;DHT22;14472;56.880;16.658;2023-06-26T00:47:36;21.50;3.50
26907;DHT22;14472;56.880;16.658;2023-06-26T00:50:02;21.50;5.10
26907;DHT22;14472;56.880;16.658;2023-06-26T00:52:29;21.50;5.70
26907;DHT22;14472;56.880;16.658;2023-06-26T00:54:55;21.40;3.40
26907;DHT22;14472;56.880;16.658;2023-06-26T00:57:21;21.40;2.70
26907;DHT22;14472;56.880;16.658;2023-06-26T00:59:48;21.30;1.70
26907;DHT22;14472;56.880;16.658;2023-06-26T01:02:14;21.20;1.70
26907;DHT22;14472;56.880;16.658;2023-06-26T01:04:43;21.20;3.00
26907;DHT22;14472;56.880;16.658;2023-06-26T01:07:13;21.10;3.60
26907;DHT22;14472;56.880;16.658;2023-06-26T01:09:41;21.10;3.40
26907;DHT22;14472;56.880;16.658;2023-06-26T01:12:07;21.00;3.20
26907;DHT22;14472;56.880;16.658;2023-06-26T01:14:34;21.00;3.00
26907;DHT22;14472;56.880;16.658;2023-06-26T01:17:01;21.00;1.50
26907;DHT22;14472;56.880;16.658;2023-06-26T01:19:29;20.90;1.50
26907;DHT22;14472;56.880;16.658;2023-06-26T01:27:45;20.80;1.00
26907;DHT22;14472;56.880;16.658;2023-06-26T01:30:12;20.70;1.00
26907;DHT22;14472;56.880;16.658;2023-06-26T01:32:39;20.70;1.00
26907;DHT22;14472;56.880;16.658;2023-06-26T01:35:06;20.60;1.00
26907;DHT22;14472;56.880;16.658;2023-06-26T01:37:33;20.60;1.00
26907;DHT22;14472;56.880;16.658;2023-06-26T01:39:58;20.60;1.00
26907;DHT22;14472;56.880;16.658;2023-06-26T01:42:24;20.40;1.00
26907;DHT22;14472;56.880;16.658;2023-06-26T01:44:50;20.40;1.00
26907;DHT22;14472;56.880;16.658;2023-06-26T01:47:22;20.40;1.00
26907;DHT22;14472;56.880;16.658;2023-06-26T01:50:14;20.40;1.00
26907;DHT22;14472;56.880;16.658;2023-06-26T01:52:49;20.30;1.00
26907;DHT22;14472;56.880;16.658;2023-06-26T01:55:36;20.20;1.00
26907;DHT22;14472;56.880;16.658;2023-06-26T01:58:04;20.20;1.00
26907;DHT22;14472;56.880;16.658;2023-06-26T02:00:31;20.10;1.00
26907;DHT22;14472;56.880;16.658;2023-06-26T02:02:57;20.10;1.00
26907;DHT22;14472;56.880;16.658;2023-06-26T02:05:23;20.00;1.00
26907;DHT22;14472;56.880;16.658;2023-06-26T02:07:49;20.00;1.00
26907;DHT22;14472;56.880;16.658;2023-06-26T02:10:17;20.00;1.00
26907;DHT22;14472;56.880;16.658;2023-06-26T02:12:42;19.90;1.00
26907;DHT22;14472;56.880;16.658;2023-06-26T02:15:09;19.90;1.00
26907;DHT22;14472;56.880;16.658;2023-06-26T02:17:34;19.90;1.00
26907;DHT22;14472;56.880;16.658;2023-06-26T02:20:00;19.80;1.00
26907;DHT22;14472;56.880;16.658;2023-06-26T02:22:26;19.80;1.00
26907;DHT22;14472;56.880;16.658;2023-06-26T02:24:54;19.80;1.00
26907;DHT22;14472;56.880;16.658;2023-06-26T02:27:19;19.70;1.00
26907;DHT22;14472;56.880;16.658;2023-06-26T02:29:45;19.70;1.00
26907;DHT22;14472;56.880;16.658;2023-06-26T02:32:11;19.60;1.00
26907;DHT22;14472;56.880;16.658;2023-06-26T02:34:37;19.60;1.00
26907;DHT22;14472;56.880;16.658;2023-06-26T02:37:02;19.50;1.00
26907;DHT22;14472;56.880;16.658;2023-06-26T02:39:28;19.50;1.70
26907;DHT22;14472;56.880;16.658;2023-06-26T02:41:54;19.50;5.40
26907;DHT22;14472;56.880;16.658;2023-06-26T02:44:20;19.50;7.60
26907;DHT22;14472;56.880;16.658;2023-06-26T02:46:46;19.60;9.80
26907;DHT22;14472;56.880;16.658;2023-06-26T02:49:12;19.60;10.10
26907;DHT22;14472;56.880;16.658;2023-06-26T02:51:38;19.60;12.00
26907;DHT22;14472;56.880;16.658;2023-06-26T02:54:04;19.50;14.40
26907;DHT22;14472;56.880;16.658;2023-06-26T02:56:30;19.50;16.00
26907;DHT22;14472;56.880;16.658;2023-06-26T02:58:56;19.50;13.50
26907;DHT22;14472;56.880;16.658;2023-06-26T03:01:22;19.50;12.50
26907;DHT22;14472;56.880;16.658;2023-06-26T03:03:47;19.50;13.40
26907;DHT22;14472;56.880;16.658;2023-06-26T03:06:14;19.50;12.90
26907;DHT22;14472;56.880;16.658;2023-06-26T03:08:40;19.50;12.50
26907;DHT22;14472;56.880;16.658;2023-06-26T03:11:07;19.50;11.90
26907;DHT22;14472;56.880;16.658;2023-06-26T03:13:34;19.50;11.80
26907;DHT22;14472;56.880;16.658;2023-06-26T03:16:00;19.50;11.80
26907;DHT22;14472;56.880;16.658;2023-06-26T03:18:26;19.50;12.80
26907;DHT22;14472;56.880;16.658;2023-06-26T03:20:52;19.50;11.80
26907;DHT22;14472;56.880;16.658;2023-06-26T03:23:20;19.50;11.80
26907;DHT22;14472;56.880;16.658;2023-06-26T03:25:46;19.50;11.80
26907;DHT22;14472;56.880;16.658;2023-06-26T03:28:12;19.50;11.80
26907;DHT22;14472;56.880;16.658;2023-06-26T03:30:37;19.50;11.80
26907;DHT22;14472;56.880;16.658;2023-06-26T03:33:03;19.60;11.90
26907;DHT22;14472;56.880;16.658;2023-06-26T03:35:29;19.60;11.90
26907;DHT22;14472;56.880;16.658;2023-06-26T03:37:55;19.60;9.30
26907;DHT22;14472;56.880;16.658;2023-06-26T03:40:20;19.60;8.80
26907;DHT22;14472;56.880;16.658;2023-06-26T03:42:46;19.70;9.50
26907;DHT22;14472;56.880;16.658;2023-06-26T03:45:12;19.70;9.30
26907;DHT22;14472;56.880;16.658;2023-06-26T03:47:37;19.70;8.00
26907;DHT22;14472;56.880;16.658;2023-06-26T03:50:03;19.70;7.90
26907;DHT22;14472;56.880;16.658;2023-06-26T03:52:29;19.80;7.20
26907;DHT22;14472;56.880;16.658;2023-06-26T03:54:57;19.80;7.40
26907;DHT22;14472;56.880;16.658;2023-06-26T03:57:23;19.80;7.30
26907;DHT22;14472;56.880;16.658;2023-06-26T03:59:49;19.80;8.00
26907;DHT22;14472;56.880;16.658;2023-06-26T04:02:15;19.90;6.50
26907;DHT22;14472;56.880;16.658;2023-06-26T04:04:41;19.90;6.50
26907;DHT22;14472;56.880;16.658;2023-06-26T04:07:07;19.90;6.50
26907;DHT22;14472;56.880;16.658;2023-06-26T04:09:32;20.00;8.60
26907;DHT22;14472;56.880;16.658;2023-06-26T04:11:58;20.00;12.10
26907;DHT22;14472;56.880;16.658;2023-06-26T04:14:24;20.00;14.50
26907;DHT22;14472;56.880;16.658;2023-06-26T04:16:49;20.00;17.60
26907;DHT22;14472;56.880;16.658;2023-06-26T04:19:15;20.10;23.00
26907;DHT22;14472;56.880;16.658;2023-06-26T04:21:41;20.10;23.00
26907;DHT22;14472;56.880;16.658;2023-06-26T04:24:07;20.10;23.00
26907;DHT22;14472;56.880;16.658;2023-06-26T04:26:33;20.20;22.20
26907;DHT22;14472;56.880;16.658;2023-06-26T04:28:59;20.20;20.90
26907;DHT22;14472;56.880;16.658;2023-06-26T04:31:25;20.30;20.20
26907;DHT22;14472;56.880;16.658;2023-06-26T04:33:51;20.30;19.70
26907;DHT22;14472;56.880;16.658;2023-06-26T04:36:18;20.30;18.70
26907;DHT22;14472;56.880;16.658;2023-06-26T04:38:44;20.40;16.90
26907;DHT22;14472;56.880;16.658;2023-06-26T04:41:09;20.40;14.80
26907;DHT22;14472;56.880;16.658;2023-06-26T04:43:35;20.40;14.20
26907;DHT22;14472;56.880;16.658;2023-06-26T04:46:02;20.50;12.50
26907;DHT22;14472;56.880;16.658;2023-06-26T04:48:28;20.50;12.50
26907;DHT22;14472;56.880;16.658;2023-06-26T04:50:56;20.60;11.30
26907;DHT22;14472;56.880;16.658;2023-06-26T04:53:22;20.60;9.10
26907;DHT22;14472;56.880;16.658;2023-06-26T04:55:52;20.70;7.30
26907;DHT22;14472;56.880;16.658;2023-06-26T04:58:19;20.70;5.30
26907;DHT22;14472;56.880;16.658;2023-06-26T05:00:45;20.70;4.30
26907;DHT22;14472;56.880;16.658;2023-06-26T05:03:16;20.80;1.00
26907;DHT22;14472;56.880;16.658;2023-06-26T05:05:42;20.80;1.00
26907;DHT22;14472;56.880;16.658;2023-06-26T05:08:37;20.90;1.00
26907;DHT22;14472;56.880;16.658;2023-06-26T05:11:03;20.90;1.00
26907;DHT22;14472;56.880;16.658;2023-06-26T05:13:29;21.00;1.00
26907;DHT22;14472;56.880;16.658;2023-06-26T05:15:54;21.00;1.00
26907;DHT22;14472;56.880;16.658;2023-06-26T05:18:20;21.10;1.00
26907;DHT22;14472;56.880;16.658;2023-06-26T05:20:46;21.10;1.00
26907;DHT22;14472;56.880;16.658;2023-06-26T05:23:12;21.20;1.00
26907;DHT22;14472;56.880;16.658;2023-06-26T05:25:38;21.30;1.00
26907;DHT22;14472;56.880;16.658;2023-06-26T05:28:05;21.30;1.00
26907;DHT22;14472;56.880;16.658;2023-06-26T05:30:31;21.40;1.00
26907;DHT22;14472;56.880;16.658;2023-06-26T05:33:00;21.40;1.00
26907;DHT22;14472;56.880;16.658;2023-06-26T05:35:29;21.50;1.00
26907;DHT22;14472;56.880;16.658;2023-06-26T05:37:58;21.50;1.00
26907;DHT22;14472;56.880;16.658;2023-06-26T05:40:24;21.60;1.00
26907;DHT22;14472;56.880;16.658;2023-06-26T05:42:50;21.70;1.00
26907;DHT22;14472;56.880;16.658;2023-06-26T05:45:16;21.70;1.00
26907;DHT22;14472;56.880;16.658;2023-06-26T05:47:42;21.80;1.00
26907;DHT22;14472;56.880;16.658;2023-06-26T05:50:09;21.80;1.00
26907;DHT22;14472;56.880;16.658;2023-06-26T05:52:36;21.90;1.00
26907;DHT22;14472;56.880;16.658;2023-06-26T05:55:03;21.90;1.00
26907;DHT22;14472;56.880;16.658;2023-06-26T05:57:30;22.00;1.00
26907;DHT22;14472;56.880;16.658;2023-06-26T05:59:56;22.00;1.00
26907;DHT22;14472;56.880;16.658;2023-06-26T06:02:22;22.10;1.00
26907;DHT22;14472;56.880;16.658;2023-06-26T06:04:48;22.10;1.00
26907;DHT22;14472;56.880;16.658;2023-06-26T06:07:14;22.20;1.00
26907;DHT22;14472;56.880;16.658;2023-06-26T06:09:39;22.30;1.00
26907;DHT22;14472;56.880;16.658;2023-06-26T06:12:06;22.30;1.00
26907;DHT22;14472;56.880;16.658;2023-06-26T06:14:32;22.40;1.00
26907;DHT22;14472;56.880;16.658;2023-06-26T06:16:58;22.40;1.00
26907;DHT22;14472;56.880;16.658;2023-06-26T06:19:24;22.50;1.00
26907;DHT22;14472;56.880;16.658;2023-06-26T06:21:50;22.60;1.00
26907;DHT22;14472;56.880;16.658;2023-06-26T06:24:16;22.60;1.00
26907;DHT22;14472;56.880;16.658;2023-06-26T06:26:41;22.70;1.00
26907;DHT22;14472;56.880;16.658;2023-06-26T06:29:07;22.80;1.00
26907;DHT22;14472;56.880;16.658;2023-06-26T06:31:33;22.80;1.00
26907;DHT22;14472;56.880;16.658;2023-06-26T06:33:58;22.90;1.00
26907;DHT22;14472;56.880;16.658;2023-06-26T06:36:24;23.00;1.00
26907;DHT22;14472;56.880;16.658;2023-06-26T06:38:50;23.00;1.00
26907;DHT22;14472;56.880;16.658;2023-06-26T06:41:15;23.10;1.00
26907;DHT22;14472;56.880;16.658;2023-06-26T06:43:42;23.20;1.00
26907;DHT22;14472;56.880;16.658;2023-06-26T06:46:08;23.30;1.00
26907;DHT22;14472;56.880;16.658;2023-06-26T06:48:34;23.30;1.00
26907;DHT22;14472;56.880;16.658;2023-06-26T06:51:00;23.40;1.00
26907;DHT22;14472;56.880;16.658;2023-06-26T06:53:26;23.50;1.00
26907;DHT22;14472;56.880;16.658;2023-06-26T06:55:52;23.50;1.00
26907;DHT22;14472;56.880;16.658;2023-06-26T06:58:17;23.60;1.00
26907;DHT22;14472;56.880;16.658;2023-06-26T07:00:46;23.70;1.00
26907;DHT22;14472;56.880;16.658;2023-06-26T07:03:12;23.80;1.00
26907;DHT22;14472;56.880;16.658;2023-06-26T07:05:37;23.90;1.00
26907;DHT22;14472;56.880;16.658;2023-06-26T07:08:03;24.00;1.00
26907;DHT22;14472;56.880;16.658;2023-06-26T07:10:30;24.10;1.00
26907;DHT22;14472;56.880;16.658;2023-06-26T07:12:56;24.10;1.00
26907;DHT22;14472;56.880;16.658;2023-06-26T07:15:22;24.30;1.00
26907;DHT22;14472;56.880;16.658;2023-06-26T07:17:48;24.50;1.00
26907;DHT22;14472;56.880;16.658;2023-06-26T07:20:14;24.60;1.00
26907;DHT22;14472;56.880;16.658;2023-06-26T07:22:41;24.60;1.00
26907;DHT22;14472;56.880;16.658;2023-06-26T07:25:08;24.70;1.00
26907;DHT22;14472;56.880;16.658;2023-06-26T07:27:40;24.80;1.00
26907;DHT22;14472;56.880;16.658;2023-06-26T07:30:07;24.90;1.00
26907;DHT22;14472;56.880;16.658;2023-06-26T07:32:36;25.00;1.00
26907;DHT22;14472;56.880;16.658;2023-06-26T07:35:02;25.10;1.00
26907;DHT22;14472;56.880;16.658;2023-06-26T07:37:28;25.30;1.00
26907;DHT22;14472;56.880;16.658;2023-06-26T07:39:54;25.30;1.00
26907;DHT22;14472;56.880;16.658;2023-06-26T07:42:20;25.40;1.00
26907;DHT22;14472;56.880;16.658;2023-06-26T07:44:45;25.40;1.00
26907;DHT22;14472;56.880;16.658;2023-06-26T07:47:12;25.50;1.00
26907;DHT22;14472;56.880;16.658;2023-06-26T07:49:39;25.60;1.00
26907;DHT22;14472;56.880;16.658;2023-06-26T07:52:05;25.60;1.00
26907;DHT22;14472;56.880;16.658;2023-06-26T07:54:30;25.70;1.00
26907;DHT22;14472;56.880;16.658;2023-06-26T07:57:00;25.70;1.00
26907;DHT22;14472;56.880;16.658;2023-06-26T07:59:27;25.80;1.00
26907;DHT22;14472;56.880;16.658;2023-06-26T08:01:54;25.90;1.00
26907;DHT22;14472;56.880;16.658;2023-06-26T08:04:22;25.90;1.00
26907;DHT22;14472;56.880;16.658;2023-06-26T08:06:53;25.90;1.00
26907;DHT22;14472;56.880;16.658;2023-06-26T08:09:20;26.00;1.00
26907;DHT22;14472;56.880;16.658;2023-06-26T08:11:46;26.10;1.00
26907;DHT22;14472;56.880;16.658;2023-06-26T08:14:12;26.10;1.00
26907;DHT22;14472;56.880;16.658;2023-06-26T08:16:39;26.10;1.00
26907;DHT22;14472;56.880;16.658;2023-06-26T08:19:05;26.10;1.00
26907;DHT22;14472;56.880;16.658;2023-06-26T08:21:31;26.10;1.00
26907;DHT22;14472;56.880;16.658;2023-06-26T08:23:57;26.20;1.00
26907;DHT22;14472;56.880;16.658;2023-06-26T08:26:23;26.30;1.00
26907;DHT22;14472;56.880;16.658;2023-06-26T08:28:49;26.40;1.00
26907;DHT22;14472;56.880;16.658;2023-06-26T08:31:15;26.50;1.00
26907;DHT22;14472;56.880;16.658;2023-06-26T08:33:41;26.50;1.00
26907;DHT22;14472;56.880;16.658;2023-06-26T08:36:07;26.60;1.00
26907;DHT22;14472;56.880;16.658;2023-06-26T08:38:32;26.60;1.00
26907;DHT22;14472;56.880;16.658;2023-06-26T08:40:59;26.70;1.00
26907;DHT22;14472;56.880;16.658;2023-06-26T08:43:25;26.70;1.00
26907;DHT22;14472;56.880;16.658;2023-06-26T08:45:52;26.50;1.00
26907;DHT22;14472;56.880;16.658;2023-06-26T08:48:18;26.50;1.00
26907;DHT22;14472;56.880;16.658;2023-06-26T08:50:48;26.50;1.00
26907;DHT22;14472;56.880;16.658;2023-06-26T08:53:34;26.50;1.00
26907;DHT22;14472;56.880;16.658;2023-06-26T08:56:03;26.50;1.00
26907;DHT22;14472;56.880;16.658;2023-06-26T08:58:31;26.50;1.00
26907;DHT22;14472;56.880;16.658;2023-06-26T09:00:57;26.50;1.00
26907;DHT22;14472;56.880;16.658;2023-06-26T09:03:24;26.60;1.00
26907;DHT22;14472;56.880;16.658;2023-06-26T09:05:51;26.70;1.00
26907;DHT22;14472;56.880;16.658;2023-06-26T09:08:17;26.60;1.00
26907;DHT22;14472;56.880;16.658;2023-06-26T09:10:42;26.70;1.00
26907;DHT22;14472;56.880;16.658;2023-06-26T09:13:08;26.70;1.00
26907;DHT22;14472;56.880;16.658;2023-06-26T09:15:45;26.80;1.00
26907;DHT22;14472;56.880;16.658;2023-06-26T09:18:11;26.90;1.00
26907;DHT22;14472;56.880;16.658;2023-06-26T09:20:37;26.90;1.00
26907;DHT22;14472;56.880;16.658;2023-06-26T09:23:03;26.90;1.00
26907;DHT22;14472;56.880;16.658;2023-06-26T09:25:30;26.90;1.00
26907;DHT22;14472;56.880;16.658;2023-06-26T09:27:56;27.00;1.00
26907;DHT22;14472;56.880;16.658;2023-06-26T09:30:22;27.10;1.00
26907;DHT22;14472;56.880;16.658;2023-06-26T09:32:48;27.10;1.00
26907;DHT22;14472;56.880;16.658;2023-06-26T09:35:15;27.20;1.00
26907;DHT22;14472;56.880;16.658;2023-06-26T09:37:40;27.30;1.00
26907;DHT22;14472;56.880;16.658;2023-06-26T09:40:07;27.30;1.00
26907;DHT22;14472;56.880;16.658;2023-06-26T09:42:33;27.40;1.00
26907;DHT22;14472;56.880;16.658;2023-06-26T09:44:59;27.50;1.00
26907;DHT22;14472;56.880;16.658;2023-06-26T09:47:25;27.50;1.00
26907;DHT22;14472;56.880;16.658;2023-06-26T09:49:51;27.60;1.00
26907;DHT22;14472;56.880;16.658;2023-06-26T09:52:18;27.60;1.00
26907;DHT22;14472;56.880;16.658;2023-06-26T09:54:45;27.70;1.00
26907;DHT22;14472;56.880;16.658;2023-06-26T09:57:13;27.70;1.00
26907;DHT22;14472;56.880;16.658;2023-06-26T09:59:39;27.80;1.00
26907;DHT22;14472;56.880;16.658;2023-06-26T10:02:06;27.80;1.00
26907;DHT22;14472;56.880;16.658;2023-06-26T10:04:32;27.80;1.00
26907;DHT22;14472;56.880;16.658;2023-06-26T10:07:04;27.90;1.00
26907;DHT22;14472;56.880;16.658;2023-06-26T10:09:31;27.90;1.00
26907;DHT22;14472;56.880;16.658;2023-06-26T10:12:06;27.90;1.00
26907;DHT22;14472;56.880;16.658;2023-06-26T10:14:35;27.90;1.00
26907;DHT22;14472;56.880;16.658;2023-06-26T10:17:04;27.80;1.00
26907;DHT22;14472;56.880;16.658;2023-06-26T10:19:33;27.90;1.00
26907;DHT22;14472;56.880;16.658;2023-06-26T10:22:02;27.80;1.00
26907;DHT22;14472;56.880;16.658;2023-06-26T10:24:30;27.70;1.00
26907;DHT22;14472;56.880;16.658;2023-06-26T10:27:25;27.70;1.00
26907;DHT22;14472;56.880;16.658;2023-06-26T10:29:54;27.60;1.00
26907;DHT22;14472;56.880;16.658;2023-06-26T10:32:22;27.60;1.00
26907;DHT22;14472;56.880;16.658;2023-06-26T10:34:49;27.50;1.00
26907;DHT22;14472;56.880;16.658;2023-06-26T10:37:15;27.50;1.00
26907;DHT22;14472;56.880;16.658;2023-06-26T10:39:54;27.50;1.00
26907;DHT22;14472;56.880;16.658;2023-06-26T10:42:35;27.50;1.00
26907;DHT22;14472;56.880;16.658;2023-06-26T10:45:14;27.40;1.00
26907;DHT22;14472;56.880;16.658;2023-06-26T10:47:41;27.40;1.00
26907;DHT22;14472;56.880;16.658;2023-06-26T10:52:45;27.30;1.00
26907;DHT22;14472;56.880;16.658;2023-06-26T10:55:10;27.40;1.00
26907;DHT22;14472;56.880;16.658;2023-06-26T10:57:36;27.40;1.00
26907;DHT22;14472;56.880;16.658;2023-06-26T11:00:19;27.40;1.00
26907;DHT22;14472;56.880;16.658;2023-06-26T11:02:51;27.50;1.00
26907;DHT22;14472;56.880;16.658;2023-06-26T11:05:27;27.50;1.00
26907;DHT22;14472;56.880;16.658;2023-06-26T11:08:09;27.50;1.00
26907;DHT22;14472;56.880;16.658;2023-06-26T11:13:17;27.60;1.00
26907;DHT22;14472;56.880;16.658;2023-06-26T11:15:43;27.60;1.00
26907;DHT22;14472;56.880;16.658;2023-06-26T11:18:13;27.60;1.00
26907;DHT22;14472;56.880;16.658;2023-06-26T11:20:39;27.60;1.00
26907;DHT22;14472;56.880;16.658;2023-06-26T11:23:05;27.70;1.00
26907;DHT22;14472;56.880;16.658;2023-06-26T11:25:37;27.70;1.00
26907;DHT22;14472;56.880;16.658;2023-06-26T11:28:04;27.70;1.00
26907;DHT22;14472;56.880;16.658;2023-06-26T11:30:31;27.70;1.00
26907;DHT22;14472;56.880;16.658;2023-06-26T11:33:09;27.80;1.00
26907;DHT22;14472;56.880;16.658;2023-06-26T11:35:36;27.80;1.00
26907;DHT22;14472;56.880;16.658;2023-06-26T11:38:03;27.80;1.00
26907;DHT22;14472;56.880;16.658;2023-06-26T11:40:36;27.80;1.00
26907;DHT22;14472;56.880;16.658;2023-06-26T11:43:03;27.80;1.00
26907;DHT22;14472;56.880;16.658;2023-06-26T11:45:32;27.90;1.00
26907;DHT22;14472;56.880;16.658;2023-06-26T11:47:58;27.90;1.00
26907;DHT22;14472;56.880;16.658;2023-06-26T11:50:25;27.90;1.00
26907;DHT22;14472;56.880;16.658;2023-06-26T11:52:58;27.80;1.00
26907;DHT22;14472;56.880;16.658;2023-06-26T11:55:25;27.90;1.00
26907;DHT22;14472;56.880;16.658;2023-06-26T11:57:55;27.90;1.00
26907;DHT22;14472;56.880;16.658;2023-06-26T12:00:22;27.90;1.00
26907;DHT22;14472;56.880;16.658;2023-06-26T12:02:49;28.00;1.00
26907;DHT22;14472;56.880;16.658;2023-06-26T12:05:18;28.00;1.00
26907;DHT22;14472;56.880;16.658;2023-06-26T12:07:46;28.00;1.00
26907;DHT22;14472;56.880;16.658;2023-06-26T12:10:13;28.00;1.00
26907;DHT22;14472;56.880;16.658;2023-06-26T12:12:40;28.10;1.00
26907;DHT22;14472;56.880;16.658;2023-06-26T12:15:07;28.10;1.00
26907;DHT22;14472;56.880;16.658;2023-06-26T12:17:37;28.10;1.00
26907;DHT22;14472;56.880;16.658;2023-06-26T12:20:05;28.20;1.00
26907;DHT22;14472;56.880;16.658;2023-06-26T12:22:34;28.30;1.00
26907;DHT22;14472;56.880;16.658;2023-06-26T12:25:01;28.20;1.00
26907;DHT22;14472;56.880;16.658;2023-06-26T12:27:27;28.20;1.00
26907;DHT22;14472;56.880;16.658;2023-06-26T12:29:54;28.30;1.00
26907;DHT22;14472;56.880;16.658;2023-06-26T12:32:24;28.30;1.00
26907;DHT22;14472;56.880;16.658;2023-06-26T12:34:51;28.40;1.00
26907;DHT22;14472;56.880;16.658;2023-06-26T12:37:17;28.50;1.00
26907;DHT22;14472;56.880;16.658;2023-06-26T12:39:56;28.50;1.00
26907;DHT22;14472;56.880;16.658;2023-06-26T12:42:27;28.60;1.00
26907;DHT22;14472;56.880;16.658;2023-06-26T12:44:54;28.60;1.00
26907;DHT22;14472;56.880;16.658;2023-06-26T12:47:26;28.70;1.00
26907;DHT22;14472;56.880;16.658;2023-06-26T12:49:53;28.80;1.00
26907;DHT22;14472;56.880;16.658;2023-06-26T12:52:20;28.80;1.00
26907;DHT22;14472;56.880;16.658;2023-06-26T12:54:46;28.80;1.00
26907;DHT22;14472;56.880;16.658;2023-06-26T12:57:13;28.80;1.00
26907;DHT22;14472;56.880;16.658;2023-06-26T12:59:42;28.90;1.00
26907;DHT22;14472;56.880;16.658;2023-06-26T13:02:10;28.90;1.00
26907;DHT22;14472;56.880;16.658;2023-06-26T13:04:39;29.00;1.00
26907;DHT22;14472;56.880;16.658;2023-06-26T13:07:10;29.00;1.00
26907;DHT22;14472;56.880;16.658;2023-06-26T13:09:36;29.10;1.00
26907;DHT22;14472;56.880;16.658;2023-06-26T13:12:03;29.10;1.00
26907;DHT22;14472;56.880;16.658;2023-06-26T13:14:32;29.10;1.00
26907;DHT22;14472;56.880;16.658;2023-06-26T13:16:58;29.20;1.00
26907;DHT22;14472;56.880;16.658;2023-06-26T13:19:24;29.30;1.00
26907;DHT22;14472;56.880;16.658;2023-06-26T13:21:49;29.30;1.00
26907;DHT22;14472;56.880;16.658;2023-06-26T13:24:15;29.30;1.00
26907;DHT22;14472;56.880;16.658;2023-06-26T13:26:41;29.30;1.00
26907;DHT22;14472;56.880;16.658;2023-06-26T13:29:07;29.30;1.00
26907;DHT22;14472;56.880;16.658;2023-06-26T13:31:33;29.20;1.00
26907;DHT22;14472;56.880;16.658;2023-06-26T13:33:59;29.30;1.00
26907;DHT22;14472;56.880;16.658;2023-06-26T13:36:25;29.30;1.00
26907;DHT22;14472;56.880;16.658;2023-06-26T13:38:52;29.30;1.00
26907;DHT22;14472;56.880;16.658;2023-06-26T13:41:23;29.30;1.00
26907;DHT22;14472;56.880;16.658;2023-06-26T13:43:49;29.30;1.00
26907;DHT22;14472;56.880;16.658;2023-06-26T13:46:16;29.30;1.00
26907;DHT22;14472;56.880;16.658;2023-06-26T13:48:43;29.30;1.00
26907;DHT22;14472;56.880;16.658;2023-06-26T13:51:09;29.30;1.00
26907;DHT22;14472;56.880;16.658;2023-06-26T13:53:35;29.20;1.00
26907;DHT22;14472;56.880;16.658;2023-06-26T13:56:00;29.20;1.00
26907;DHT22;14472;56.880;16.658;2023-06-26T13:58:27;29.20;1.00
26907;DHT22;14472;56.880;16.658;2023-06-26T14:00:53;29.20;1.00
26907;DHT22;14472;56.880;16.658;2023-06-26T14:03:19;29.10;1.00
26907;DHT22;14472;56.880;16.658;2023-06-26T14:05:45;29.10;1.00
26907;DHT22;14472;56.880;16.658;2023-06-26T14:08:12;29.20;1.00
26907;DHT22;14472;56.880;16.658;2023-06-26T14:10:38;29.20;1.00
26907;DHT22;14472;56.880;16.658;2023-06-26T14:13:04;29.10;1.00
26907;DHT22;14472;56.880;16.658;2023-06-26T14:15:30;29.10;1.00
26907;DHT22;14472;56.880;16.658;2023-06-26T14:17:56;29.10;1.00
26907;DHT22;14472;56.880;16.658;2023-06-26T14:20:22;29.20;1.00
26907;DHT22;14472;56.880;16.658;2023-06-26T14:22:49;29.20;1.00
26907;DHT22;14472;56.880;16.658;2023-06-26T14:25:15;29.20;1.00
26907;DHT22;14472;56.880;16.658;2023-06-26T14:27:41;29.20;1.00
26907;DHT22;14472;56.880;16.658;2023-06-26T14:30:08;29.20;1.00
26907;DHT22;14472;56.880;16.658;2023-06-26T14:32:34;29.20;1.00
26907;DHT22;14472;56.880;16.658;2023-06-26T14:35:00;29.10;1.00
26907;DHT22;14472;56.880;16.658;2023-06-26T14:37:29;29.20;1.00
26907;DHT22;14472;56.880;16.658;2023-06-26T14:39:55;29.20;1.00
26907;DHT22;14472;56.880;16.658;2023-06-26T14:42:21;29.10;1.00
26907;DHT22;14472;56.880;16.658;2023-06-26T14:44:46;29.10;1.00
26907;DHT22;14472;56.880;16.658;2023-06-26T14:47:16;29.00;1.00
26907;DHT22;14472;56.880;16.658;2023-06-26T14:49:42;29.00;1.00
26907;DHT22;14472;56.880;16.658;2023-06-26T14:52:08;29.00;1.00
26907;DHT22;14472;56.880;16.658;2023-06-26T14:54:34;29.00;1.00
26907;DHT22;14472;56.880;16.658;2023-06-26T14:57:05;29.00;1.00
26907;DHT22;14472;56.880;16.658;2023-06-26T14:59:31;29.00;1.00
26907;DHT22;14472;56.880;16.658;2023-06-26T15:01:57;29.00;1.00
26907;DHT22;14472;56.880;16.658;2023-06-26T15:04:22;29.00;1.00
26907;DHT22;14472;56.880;16.658;2023-06-26T15:06:48;29.00;1.00
26907;DHT22;14472;56.880;16.658;2023-06-26T15:09:14;29.00;1.00
26907;DHT22;14472;56.880;16.658;2023-06-26T15:11:40;29.00;1.00
26907;DHT22;14472;56.880;16.658;2023-06-26T15:14:06;29.00;1.00
26907;DHT22;14472;56.880;16.658;2023-06-26T15:16:31;29.00;1.00
26907;DHT22;14472;56.880;16.658;2023-06-26T15:18:57;29.00;1.00
26907;DHT22;14472;56.880;16.658;2023-06-26T15:21:23;29.00;1.00
26907;DHT22;14472;56.880;16.658;2023-06-26T15:23:50;28.90;1.00
26907;DHT22;14472;56.880;16.658;2023-06-26T15:26:16;28.90;1.00
26907;DHT22;14472;56.880;16.658;2023-06-26T15:28:42;28.90;1.00
26907;DHT22;14472;56.880;16.658;2023-06-26T15:31:07;28.90;1.00
26907;DHT22;14472;56.880;16.658;2023-06-26T15:33:33;28.90;1.00
26907;DHT22;14472;56.880;16.658;2023-06-26T15:35:59;28.90;1.00
26907;DHT22;14472;56.880;16.658;2023-06-26T15:38:25;28.90;1.00
26907;DHT22;14472;56.880;16.658;2023-06-26T15:40:51;28.80;1.00